sensor_id;sensor_type;location;lat;lon;timestamp;P1;durP1;ratioP1;P2;durP2;ratioP2
60352;SDS011;46196;52.970;6.954;2023-04-28T00:01:58;8.75;;;5.93;;
60352;SDS011;46196;52.970;6.954;2023-04-28T00:04:24;7.78;;;5.85;;
60352;SDS011;46196;52.970;6.954;2023-04-28T00:06:49;9.18;;;6.05;;
60352;SDS011;46196;52.970;6.954;2023-04-28T00:09:15;8.25;;;5.95;;
60352;SDS011;46196;52.970;6.954;2023-04-28T00:11:43;7.72;;;6.28;;
60352;SDS011;46196;52.970;6.954;2023-04-28T00:14:10;8.75;;;5.68;;
60352;SDS011;46196;52.970;6.954;2023-04-28T00:16:37;10.93;;;6.38;;
60352;SDS011;46196;52.970;6.954;2023-04-28T00:19:03;8.90;;;6.40;;
60352;SDS011;46196;52.970;6.954;2023-04-28T00:21:30;10.88;;;7.22;;
60352;SDS011;46196;52.970;6.954;2023-04-28T00:23:56;9.43;;;5.85;;
60352;SDS011;46196;52.970;6.954;2023-04-28T00:26:22;11.63;;;6.45;;
60352;SDS011;46196;52.970;6.954;2023-04-28T00:28:47;11.35;;;5.75;;
60352;SDS011;46196;52.970;6.954;2023-04-28T00:31:13;9.15;;;6.18;;
60352;SDS011;46196;52.970;6.954;2023-04-28T00:33:40;9.52;;;6.20;;
60352;SDS011;46196;52.970;6.954;2023-04-28T00:36:07;10.90;;;6.32;;
60352;SDS011;46196;52.970;6.954;2023-04-28T00:38:33;12.38;;;6.13;;
60352;SDS011;46196;52.970;6.954;2023-04-28T00:40:59;10.35;;;6.35;;
60352;SDS011;46196;52.970;6.954;2023-04-28T00:43:25;10.57;;;6.40;;
60352;SDS011;46196;52.970;6.954;2023-04-28T00:45:51;13.18;;;6.40;;
60352;SDS011;46196;52.970;6.954;2023-04-28T00:48:17;11.82;;;6.82;;
60352;SDS011;46196;52.970;6.954;2023-04-28T00:50:43;9.60;;;6.53;;
60352;SDS011;46196;52.970;6.954;2023-04-28T00:53:10;9.45;;;6.57;;
60352;SDS011;46196;52.970;6.954;2023-04-28T00:55:36;10.75;;;6.65;;
60352;SDS011;46196;52.970;6.954;2023-04-28T00:58:03;10.93;;;7.43;;
60352;SDS011;46196;52.970;6.954;2023-04-28T01:00:30;12.13;;;7.30;;
60352;SDS011;46196;52.970;6.954;2023-04-28T01:02:56;11.70;;;6.95;;
60352;SDS011;46196;52.970;6.954;2023-04-28T01:05:25;12.00;;;7.88;;
60352;SDS011;46196;52.970;6.954;2023-04-28T01:07:52;10.75;;;7.57;;
60352;SDS011;46196;52.970;6.954;2023-04-28T01:10:18;11.48;;;7.40;;
60352;SDS011;46196;52.970;6.954;2023-04-28T01:12:44;12.48;;;7.70;;
60352;SDS011;46196;52.970;6.954;2023-04-28T01:15:11;13.40;;;8.55;;
60352;SDS011;46196;52.970;6.954;2023-04-28T01:17:44;14.68;;;8.32;;
60352;SDS011;46196;52.970;6.954;2023-04-28T01:20:11;13.77;;;8.02;;
60352;SDS011;46196;52.970;6.954;2023-04-28T01:22:37;13.55;;;8.50;;
60352;SDS011;46196;52.970;6.954;2023-04-28T01:25:02;12.18;;;8.60;;
60352;SDS011;46196;52.970;6.954;2023-04-28T01:27:28;13.00;;;8.23;;
60352;SDS011;46196;52.970;6.954;2023-04-28T01:29:54;13.77;;;8.05;;
60352;SDS011;46196;52.970;6.954;2023-04-28T01:32:19;14.98;;;8.43;;
60352;SDS011;46196;52.970;6.954;2023-04-28T01:34:45;13.70;;;8.20;;
60352;SDS011;46196;52.970;6.954;2023-04-28T01:37:11;14.57;;;8.27;;
60352;SDS011;46196;52.970;6.954;2023-04-28T01:39:37;11.60;;;8.18;;
60352;SDS011;46196;52.970;6.954;2023-04-28T01:42:03;11.95;;;7.88;;
60352;SDS011;46196;52.970;6.954;2023-04-28T01:44:29;11.38;;;7.80;;
60352;SDS011;46196;52.970;6.954;2023-04-28T01:46:54;13.98;;;8.52;;
60352;SDS011;46196;52.970;6.954;2023-04-28T01:49:20;15.10;;;8.73;;
60352;SDS011;46196;52.970;6.954;2023-04-28T01:51:46;13.27;;;7.60;;
60352;SDS011;46196;52.970;6.954;2023-04-28T01:54:11;14.93;;;8.50;;
60352;SDS011;46196;52.970;6.954;2023-04-28T01:56:37;13.35;;;8.13;;
60352;SDS011;46196;52.970;6.954;2023-04-28T01:59:03;13.75;;;8.27;;
60352;SDS011;46196;52.970;6.954;2023-04-28T02:01:28;12.80;;;7.85;;
60352;SDS011;46196;52.970;6.954;2023-04-28T02:03:54;13.88;;;8.20;;
60352;SDS011;46196;52.970;6.954;2023-04-28T02:06:20;14.30;;;9.10;;
60352;SDS011;46196;52.970;6.954;2023-04-28T02:08:46;14.38;;;8.63;;
60352;SDS011;46196;52.970;6.954;2023-04-28T02:11:11;13.82;;;9.18;;
60352;SDS011;46196;52.970;6.954;2023-04-28T02:13:37;14.60;;;8.32;;
60352;SDS011;46196;52.970;6.954;2023-04-28T02:16:03;13.75;;;8.02;;
60352;SDS011;46196;52.970;6.954;2023-04-28T02:18:29;15.02;;;8.63;;
60352;SDS011;46196;52.970;6.954;2023-04-28T02:20:54;14.70;;;8.40;;
60352;SDS011;46196;52.970;6.954;2023-04-28T02:23:20;13.00;;;8.43;;
60352;SDS011;46196;52.970;6.954;2023-04-28T02:25:46;13.80;;;8.55;;
60352;SDS011;46196;52.970;6.954;2023-04-28T02:28:11;14.23;;;8.70;;
60352;SDS011;46196;52.970;6.954;2023-04-28T02:30:38;14.48;;;8.98;;
60352;SDS011;46196;52.970;6.954;2023-04-28T02:33:03;14.73;;;9.50;;
60352;SDS011;46196;52.970;6.954;2023-04-28T02:35:29;14.98;;;9.02;;
60352;SDS011;46196;52.970;6.954;2023-04-28T02:37:55;14.27;;;8.63;;
60352;SDS011;46196;52.970;6.954;2023-04-28T02:40:21;15.88;;;10.18;;
60352;SDS011;46196;52.970;6.954;2023-04-28T02:42:46;13.63;;;8.82;;
60352;SDS011;46196;52.970;6.954;2023-04-28T02:45:12;14.68;;;9.77;;
60352;SDS011;46196;52.970;6.954;2023-04-28T02:47:38;17.98;;;9.80;;
60352;SDS011;46196;52.970;6.954;2023-04-28T02:50:04;15.88;;;9.55;;
60352;SDS011;46196;52.970;6.954;2023-04-28T02:52:30;18.02;;;11.80;;
60352;SDS011;46196;52.970;6.954;2023-04-28T02:54:56;17.45;;;9.85;;
60352;SDS011;46196;52.970;6.954;2023-04-28T02:57:22;14.48;;;10.05;;
60352;SDS011;46196;52.970;6.954;2023-04-28T02:59:48;13.95;;;9.40;;
60352;SDS011;46196;52.970;6.954;2023-04-28T03:02:14;16.60;;;9.50;;
60352;SDS011;46196;52.970;6.954;2023-04-28T03:04:40;17.88;;;10.30;;
60352;SDS011;46196;52.970;6.954;2023-04-28T03:07:06;16.27;;;10.25;;
60352;SDS011;46196;52.970;6.954;2023-04-28T03:09:32;16.08;;;9.93;;
60352;SDS011;46196;52.970;6.954;2023-04-28T03:11:58;18.60;;;10.32;;
60352;SDS011;46196;52.970;6.954;2023-04-28T03:14:23;17.88;;;10.50;;
60352;SDS011;46196;52.970;6.954;2023-04-28T03:16:49;17.50;;;10.18;;
60352;SDS011;46196;52.970;6.954;2023-04-28T03:19:15;16.45;;;10.68;;
60352;SDS011;46196;52.970;6.954;2023-04-28T03:21:41;21.95;;;9.80;;
60352;SDS011;46196;52.970;6.954;2023-04-28T03:24:06;16.55;;;10.15;;
60352;SDS011;46196;52.970;6.954;2023-04-28T03:26:32;15.52;;;10.02;;
60352;SDS011;46196;52.970;6.954;2023-04-28T03:28:58;16.90;;;9.80;;
60352;SDS011;46196;52.970;6.954;2023-04-28T03:31:24;20.23;;;11.45;;
60352;SDS011;46196;52.970;6.954;2023-04-28T03:33:50;15.70;;;10.50;;
60352;SDS011;46196;52.970;6.954;2023-04-28T03:36:16;16.25;;;10.43;;
60352;SDS011;46196;52.970;6.954;2023-04-28T03:38:42;16.35;;;10.05;;
60352;SDS011;46196;52.970;6.954;2023-04-28T03:41:08;16.50;;;9.80;;
60352;SDS011;46196;52.970;6.954;2023-04-28T03:43:33;16.42;;;10.85;;
60352;SDS011;46196;52.970;6.954;2023-04-28T03:46:01;15.80;;;9.15;;
60352;SDS011;46196;52.970;6.954;2023-04-28T03:48:30;16.90;;;10.07;;
60352;SDS011;46196;52.970;6.954;2023-04-28T03:50:56;16.92;;;9.55;;
60352;SDS011;46196;52.970;6.954;2023-04-28T03:53:22;17.38;;;9.93;;
60352;SDS011;46196;52.970;6.954;2023-04-28T03:55:48;18.17;;;10.25;;
60352;SDS011;46196;52.970;6.954;2023-04-28T03:58:13;17.42;;;10.73;;
60352;SDS011;46196;52.970;6.954;2023-04-28T04:00:39;20.25;;;11.30;;
60352;SDS011;46196;52.970;6.954;2023-04-28T04:03:05;14.85;;;9.38;;
60352;SDS011;46196;52.970;6.954;2023-04-28T04:05:31;15.93;;;10.85;;
60352;SDS011;46196;52.970;6.954;2023-04-28T04:07:56;18.65;;;10.27;;
60352;SDS011;46196;52.970;6.954;2023-04-28T04:10:22;16.77;;;9.65;;
60352;SDS011;46196;52.970;6.954;2023-04-28T04:12:48;17.33;;;10.00;;
60352;SDS011;46196;52.970;6.954;2023-04-28T04:15:13;15.40;;;9.65;;
60352;SDS011;46196;52.970;6.954;2023-04-28T04:17:39;17.67;;;10.93;;
60352;SDS011;46196;52.970;6.954;2023-04-28T04:20:05;18.38;;;11.30;;
60352;SDS011;46196;52.970;6.954;2023-04-28T04:22:31;15.85;;;10.23;;
60352;SDS011;46196;52.970;6.954;2023-04-28T04:24:57;16.15;;;10.38;;
60352;SDS011;46196;52.970;6.954;2023-04-28T04:27:23;16.13;;;10.73;;
60352;SDS011;46196;52.970;6.954;2023-04-28T04:29:49;18.50;;;10.85;;
60352;SDS011;46196;52.970;6.954;2023-04-28T04:32:15;16.48;;;9.90;;
60352;SDS011;46196;52.970;6.954;2023-04-28T04:34:40;18.73;;;11.32;;
60352;SDS011;46196;52.970;6.954;2023-04-28T04:37:06;17.70;;;10.77;;
60352;SDS011;46196;52.970;6.954;2023-04-28T04:39:33;16.35;;;9.85;;
60352;SDS011;46196;52.970;6.954;2023-04-28T04:41:58;20.25;;;10.30;;
60352;SDS011;46196;52.970;6.954;2023-04-28T04:44:24;15.23;;;9.95;;
60352;SDS011;46196;52.970;6.954;2023-04-28T04:46:50;16.45;;;10.40;;
60352;SDS011;46196;52.970;6.954;2023-04-28T04:49:16;20.63;;;10.68;;
60352;SDS011;46196;52.970;6.954;2023-04-28T04:51:42;20.27;;;10.70;;
60352;SDS011;46196;52.970;6.954;2023-04-28T04:54:07;15.07;;;9.88;;
60352;SDS011;46196;52.970;6.954;2023-04-28T04:56:33;16.60;;;10.40;;
60352;SDS011;46196;52.970;6.954;2023-04-28T04:58:59;17.90;;;11.20;;
60352;SDS011;46196;52.970;6.954;2023-04-28T05:01:24;15.93;;;10.55;;
60352;SDS011;46196;52.970;6.954;2023-04-28T05:03:50;17.30;;;10.82;;
60352;SDS011;46196;52.970;6.954;2023-04-28T05:06:16;17.17;;;10.23;;
60352;SDS011;46196;52.970;6.954;2023-04-28T05:08:42;15.40;;;9.68;;
60352;SDS011;46196;52.970;6.954;2023-04-28T05:11:07;17.23;;;10.85;;
60352;SDS011;46196;52.970;6.954;2023-04-28T05:13:33;15.98;;;9.90;;
60352;SDS011;46196;52.970;6.954;2023-04-28T05:15:59;15.38;;;10.40;;
60352;SDS011;46196;52.970;6.954;2023-04-28T05:18:24;15.85;;;9.88;;
60352;SDS011;46196;52.970;6.954;2023-04-28T05:20:50;15.63;;;10.20;;
60352;SDS011;46196;52.970;6.954;2023-04-28T05:23:16;16.02;;;10.10;;
60352;SDS011;46196;52.970;6.954;2023-04-28T05:25:42;17.25;;;9.82;;
60352;SDS011;46196;52.970;6.954;2023-04-28T05:28:11;16.40;;;10.70;;
60352;SDS011;46196;52.970;6.954;2023-04-28T05:30:36;19.77;;;10.50;;
60352;SDS011;46196;52.970;6.954;2023-04-28T05:33:02;17.92;;;10.60;;
60352;SDS011;46196;52.970;6.954;2023-04-28T05:35:28;14.77;;;10.15;;
60352;SDS011;46196;52.970;6.954;2023-04-28T05:37:55;16.10;;;10.02;;
60352;SDS011;46196;52.970;6.954;2023-04-28T05:40:21;16.75;;;9.82;;
60352;SDS011;46196;52.970;6.954;2023-04-28T05:42:47;16.85;;;10.35;;
60352;SDS011;46196;52.970;6.954;2023-04-28T05:45:13;15.43;;;10.90;;
60352;SDS011;46196;52.970;6.954;2023-04-28T05:47:39;14.60;;;9.30;;
60352;SDS011;46196;52.970;6.954;2023-04-28T05:50:05;16.52;;;10.13;;
60352;SDS011;46196;52.970;6.954;2023-04-28T05:52:31;17.88;;;10.25;;
60352;SDS011;46196;52.970;6.954;2023-04-28T05:54:57;12.10;;;7.40;;
60352;SDS011;46196;52.970;6.954;2023-04-28T05:57:23;16.63;;;10.15;;
60352;SDS011;46196;52.970;6.954;2023-04-28T05:59:48;14.10;;;9.50;;
60352;SDS011;46196;52.970;6.954;2023-04-28T06:02:14;15.18;;;9.80;;
60352;SDS011;46196;52.970;6.954;2023-04-28T06:04:40;14.93;;;9.48;;
60352;SDS011;46196;52.970;6.954;2023-04-28T06:07:08;12.68;;;8.93;;
60352;SDS011;46196;52.970;6.954;2023-04-28T06:09:34;12.75;;;9.05;;
60352;SDS011;46196;52.970;6.954;2023-04-28T06:12:00;11.82;;;8.07;;
60352;SDS011;46196;52.970;6.954;2023-04-28T06:14:28;13.88;;;9.30;;
60352;SDS011;46196;52.970;6.954;2023-04-28T06:16:53;15.38;;;8.95;;
60352;SDS011;46196;52.970;6.954;2023-04-28T06:19:19;13.35;;;8.32;;
60352;SDS011;46196;52.970;6.954;2023-04-28T06:21:45;13.60;;;8.85;;
60352;SDS011;46196;52.970;6.954;2023-04-28T06:24:11;12.93;;;8.55;;
60352;SDS011;46196;52.970;6.954;2023-04-28T06:26:37;12.95;;;8.88;;
60352;SDS011;46196;52.970;6.954;2023-04-28T06:29:02;11.23;;;7.95;;
60352;SDS011;46196;52.970;6.954;2023-04-28T06:31:28;17.38;;;8.77;;
60352;SDS011;46196;52.970;6.954;2023-04-28T06:33:54;12.40;;;8.07;;
60352;SDS011;46196;52.970;6.954;2023-04-28T06:36:20;11.98;;;8.00;;
60352;SDS011;46196;52.970;6.954;2023-04-28T06:38:45;12.48;;;7.90;;
60352;SDS011;46196;52.970;6.954;2023-04-28T06:41:11;13.25;;;8.27;;
60352;SDS011;46196;52.970;6.954;2023-04-28T06:43:37;10.93;;;7.90;;
60352;SDS011;46196;52.970;6.954;2023-04-28T06:46:03;13.40;;;8.70;;
60352;SDS011;46196;52.970;6.954;2023-04-28T06:48:29;12.10;;;8.35;;
60352;SDS011;46196;52.970;6.954;2023-04-28T06:50:55;11.68;;;7.95;;
60352;SDS011;46196;52.970;6.954;2023-04-28T06:53:20;12.27;;;7.35;;
60352;SDS011;46196;52.970;6.954;2023-04-28T06:55:46;13.15;;;7.82;;
60352;SDS011;46196;52.970;6.954;2023-04-28T06:58:12;10.75;;;7.72;;
60352;SDS011;46196;52.970;6.954;2023-04-28T07:00:37;11.75;;;7.65;;
60352;SDS011;46196;52.970;6.954;2023-04-28T07:03:03;11.15;;;7.90;;
60352;SDS011;46196;52.970;6.954;2023-04-28T07:05:29;13.32;;;7.82;;
60352;SDS011;46196;52.970;6.954;2023-04-28T07:07:55;12.82;;;7.78;;
60352;SDS011;46196;52.970;6.954;2023-04-28T07:10:20;12.63;;;7.90;;
60352;SDS011;46196;52.970;6.954;2023-04-28T07:12:48;11.82;;;7.97;;
60352;SDS011;46196;52.970;6.954;2023-04-28T07:15:16;14.10;;;7.93;;
60352;SDS011;46196;52.970;6.954;2023-04-28T07:17:42;11.65;;;7.80;;
60352;SDS011;46196;52.970;6.954;2023-04-28T07:20:07;14.55;;;8.38;;
60352;SDS011;46196;52.970;6.954;2023-04-28T07:22:33;12.55;;;7.95;;
60352;SDS011;46196;52.970;6.954;2023-04-28T07:24:59;10.98;;;7.75;;
60352;SDS011;46196;52.970;6.954;2023-04-28T07:27:25;12.43;;;8.35;;
60352;SDS011;46196;52.970;6.954;2023-04-28T07:29:51;11.57;;;8.52;;
60352;SDS011;46196;52.970;6.954;2023-04-28T07:32:16;11.35;;;7.82;;
60352;SDS011;46196;52.970;6.954;2023-04-28T07:34:42;10.38;;;8.00;;
60352;SDS011;46196;52.970;6.954;2023-04-28T07:37:08;14.20;;;8.13;;
60352;SDS011;46196;52.970;6.954;2023-04-28T07:39:36;11.45;;;8.02;;
60352;SDS011;46196;52.970;6.954;2023-04-28T07:42:03;13.05;;;8.38;;
60352;SDS011;46196;52.970;6.954;2023-04-28T07:44:29;11.52;;;8.15;;
60352;SDS011;46196;52.970;6.954;2023-04-28T07:46:56;15.68;;;8.57;;
60352;SDS011;46196;52.970;6.954;2023-04-28T07:49:22;11.65;;;7.65;;
60352;SDS011;46196;52.970;6.954;2023-04-28T07:51:48;10.77;;;7.88;;
60352;SDS011;46196;52.970;6.954;2023-04-28T07:54:16;10.50;;;7.72;;
60352;SDS011;46196;52.970;6.954;2023-04-28T07:56:42;12.68;;;7.93;;
60352;SDS011;46196;52.970;6.954;2023-04-28T07:59:07;11.35;;;7.65;;
60352;SDS011;46196;52.970;6.954;2023-04-28T08:01:33;12.55;;;7.88;;
60352;SDS011;46196;52.970;6.954;2023-04-28T08:03:59;11.38;;;8.07;;
60352;SDS011;46196;52.970;6.954;2023-04-28T08:06:25;12.35;;;8.82;;
60352;SDS011;46196;52.970;6.954;2023-04-28T08:08:50;11.43;;;7.13;;
60352;SDS011;46196;52.970;6.954;2023-04-28T08:11:16;11.80;;;7.95;;
60352;SDS011;46196;52.970;6.954;2023-04-28T08:13:42;12.73;;;7.97;;
60352;SDS011;46196;52.970;6.954;2023-04-28T08:16:08;11.88;;;8.60;;
60352;SDS011;46196;52.970;6.954;2023-04-28T08:18:33;10.82;;;7.15;;
60352;SDS011;46196;52.970;6.954;2023-04-28T08:20:59;10.10;;;7.18;;
60352;SDS011;46196;52.970;6.954;2023-04-28T08:23:25;11.68;;;7.28;;
60352;SDS011;46196;52.970;6.954;2023-04-28T08:25:56;10.48;;;7.25;;
60352;SDS011;46196;52.970;6.954;2023-04-28T08:28:22;9.88;;;7.35;;
60352;SDS011;46196;52.970;6.954;2023-04-28T08:30:48;10.32;;;8.20;;
60352;SDS011;46196;52.970;6.954;2023-04-28T08:33:13;9.30;;;7.03;;
60352;SDS011;46196;52.970;6.954;2023-04-28T08:35:39;10.73;;;7.43;;
60352;SDS011;46196;52.970;6.954;2023-04-28T08:38:05;9.70;;;6.70;;
60352;SDS011;46196;52.970;6.954;2023-04-28T08:40:32;10.48;;;7.15;;
60352;SDS011;46196;52.970;6.954;2023-04-28T08:42:58;12.75;;;7.00;;
60352;SDS011;46196;52.970;6.954;2023-04-28T08:45:24;11.43;;;7.32;;
60352;SDS011;46196;52.970;6.954;2023-04-28T08:47:51;13.13;;;7.22;;
60352;SDS011;46196;52.970;6.954;2023-04-28T08:50:20;11.52;;;6.93;;
60352;SDS011;46196;52.970;6.954;2023-04-28T08:52:47;8.45;;;6.45;;
60352;SDS011;46196;52.970;6.954;2023-04-28T08:55:13;9.40;;;6.90;;
60352;SDS011;46196;52.970;6.954;2023-04-28T08:57:44;10.32;;;7.03;;
60352;SDS011;46196;52.970;6.954;2023-04-28T09:00:13;10.05;;;6.57;;
60352;SDS011;46196;52.970;6.954;2023-04-28T09:02:39;11.05;;;6.53;;
60352;SDS011;46196;52.970;6.954;2023-04-28T09:05:08;9.35;;;6.82;;
60352;SDS011;46196;52.970;6.954;2023-04-28T09:07:35;7.75;;;6.60;;
60352;SDS011;46196;52.970;6.954;2023-04-28T09:12:52;7.40;;;6.18;;
60352;SDS011;46196;52.970;6.954;2023-04-28T09:15:25;9.73;;;6.85;;
60352;SDS011;46196;52.970;6.954;2023-04-28T09:17:52;11.43;;;6.95;;
60352;SDS011;46196;52.970;6.954;2023-04-28T09:20:18;9.27;;;7.22;;
60352;SDS011;46196;52.970;6.954;2023-04-28T09:22:48;9.13;;;6.85;;
60352;SDS011;46196;52.970;6.954;2023-04-28T09:25:15;10.85;;;6.47;;
60352;SDS011;46196;52.970;6.954;2023-04-28T09:27:42;9.02;;;7.43;;
60352;SDS011;46196;52.970;6.954;2023-04-28T09:30:07;11.00;;;7.47;;
60352;SDS011;46196;52.970;6.954;2023-04-28T09:32:36;10.95;;;7.72;;
60352;SDS011;46196;52.970;6.954;2023-04-28T09:35:02;9.20;;;6.80;;
60352;SDS011;46196;52.970;6.954;2023-04-28T09:37:29;9.45;;;7.10;;
60352;SDS011;46196;52.970;6.954;2023-04-28T09:39:56;10.73;;;7.88;;
60352;SDS011;46196;52.970;6.954;2023-04-28T09:42:40;7.63;;;6.60;;
60352;SDS011;46196;52.970;6.954;2023-04-28T09:45:08;11.15;;;6.90;;
60352;SDS011;46196;52.970;6.954;2023-04-28T09:47:41;12.18;;;6.95;;
60352;SDS011;46196;52.970;6.954;2023-04-28T09:50:10;10.00;;;6.47;;
60352;SDS011;46196;52.970;6.954;2023-04-28T09:52:39;10.77;;;7.40;;
60352;SDS011;46196;52.970;6.954;2023-04-28T09:55:06;9.45;;;6.82;;
60352;SDS011;46196;52.970;6.954;2023-04-28T09:57:33;11.48;;;7.57;;
60352;SDS011;46196;52.970;6.954;2023-04-28T10:00:00;11.88;;;8.48;;
60352;SDS011;46196;52.970;6.954;2023-04-28T10:02:26;11.10;;;7.82;;
60352;SDS011;46196;52.970;6.954;2023-04-28T10:04:53;8.90;;;6.80;;
60352;SDS011;46196;52.970;6.954;2023-04-28T10:07:19;8.35;;;6.70;;
60352;SDS011;46196;52.970;6.954;2023-04-28T10:09:46;8.13;;;6.35;;
60352;SDS011;46196;52.970;6.954;2023-04-28T10:12:17;12.23;;;7.30;;
60352;SDS011;46196;52.970;6.954;2023-04-28T10:14:47;9.38;;;7.35;;
60352;SDS011;46196;52.970;6.954;2023-04-28T10:17:15;10.68;;;7.15;;
60352;SDS011;46196;52.970;6.954;2023-04-28T10:19:42;10.15;;;7.13;;
60352;SDS011;46196;52.970;6.954;2023-04-28T10:24:52;10.43;;;6.82;;
60352;SDS011;46196;52.970;6.954;2023-04-28T10:27:33;10.15;;;7.25;;
60352;SDS011;46196;52.970;6.954;2023-04-28T10:32:36;10.52;;;6.75;;
60352;SDS011;46196;52.970;6.954;2023-04-28T10:40:48;11.40;;;7.03;;
60352;SDS011;46196;52.970;6.954;2023-04-28T10:48:16;9.63;;;7.60;;
60352;SDS011;46196;52.970;6.954;2023-04-28T10:54:05;10.63;;;7.20;;
60352;SDS011;46196;52.970;6.954;2023-04-28T10:56:32;13.82;;;7.40;;
60352;SDS011;46196;52.970;6.954;2023-04-28T10:58:58;10.50;;;7.30;;
60352;SDS011;46196;52.970;6.954;2023-04-28T11:01:25;12.20;;;7.38;;
60352;SDS011;46196;52.970;6.954;2023-04-28T11:14:35;10.32;;;6.72;;
60352;SDS011;46196;52.970;6.954;2023-04-28T11:17:08;9.68;;;6.95;;
60352;SDS011;46196;52.970;6.954;2023-04-28T11:19:41;10.38;;;7.25;;
60352;SDS011;46196;52.970;6.954;2023-04-28T11:22:13;9.27;;;7.88;;
60352;SDS011;46196;52.970;6.954;2023-04-28T11:24:40;9.65;;;8.00;;
60352;SDS011;46196;52.970;6.954;2023-04-28T11:27:06;8.55;;;6.88;;
60352;SDS011;46196;52.970;6.954;2023-04-28T11:29:33;8.82;;;6.95;;
60352;SDS011;46196;52.970;6.954;2023-04-28T11:32:03;10.00;;;7.22;;
60352;SDS011;46196;52.970;6.954;2023-04-28T11:34:32;10.68;;;7.45;;
60352;SDS011;46196;52.970;6.954;2023-04-28T11:36:59;11.63;;;7.82;;
60352;SDS011;46196;52.970;6.954;2023-04-28T11:39:26;9.85;;;7.13;;
60352;SDS011;46196;52.970;6.954;2023-04-28T11:41:59;10.93;;;7.28;;
60352;SDS011;46196;52.970;6.954;2023-04-28T11:44:34;9.20;;;7.18;;
60352;SDS011;46196;52.970;6.954;2023-04-28T11:47:00;10.32;;;7.43;;
60352;SDS011;46196;52.970;6.954;2023-04-28T11:49:27;11.63;;;7.55;;
60352;SDS011;46196;52.970;6.954;2023-04-28T11:51:55;10.98;;;7.20;;
60352;SDS011;46196;52.970;6.954;2023-04-28T11:54:25;11.95;;;7.68;;
60352;SDS011;46196;52.970;6.954;2023-04-28T11:56:53;9.75;;;7.85;;
60352;SDS011;46196;52.970;6.954;2023-04-28T11:59:26;8.48;;;7.13;;
60352;SDS011;46196;52.970;6.954;2023-04-28T12:02:00;8.60;;;7.28;;
60352;SDS011;46196;52.970;6.954;2023-04-28T12:07:11;10.65;;;8.15;;
60352;SDS011;46196;52.970;6.954;2023-04-28T12:09:42;13.38;;;7.70;;
60352;SDS011;46196;52.970;6.954;2023-04-28T12:12:09;12.35;;;7.85;;
60352;SDS011;46196;52.970;6.954;2023-04-28T12:17:37;10.23;;;7.77;;
60352;SDS011;46196;52.970;6.954;2023-04-28T12:20:10;12.48;;;8.63;;
60352;SDS011;46196;52.970;6.954;2023-04-28T12:25:13;10.25;;;7.38;;
60352;SDS011;46196;52.970;6.954;2023-04-28T12:30:35;12.30;;;8.27;;
60352;SDS011;46196;52.970;6.954;2023-04-28T12:33:20;14.32;;;8.40;;
60352;SDS011;46196;52.970;6.954;2023-04-28T12:35:47;10.60;;;7.68;;
60352;SDS011;46196;52.970;6.954;2023-04-28T12:38:14;10.57;;;8.10;;
60352;SDS011;46196;52.970;6.954;2023-04-28T12:40:40;11.15;;;7.97;;
60352;SDS011;46196;52.970;6.954;2023-04-28T12:43:06;11.80;;;8.32;;
60352;SDS011;46196;52.970;6.954;2023-04-28T12:45:32;12.27;;;8.65;;
60352;SDS011;46196;52.970;6.954;2023-04-28T12:47:58;12.68;;;8.85;;
60352;SDS011;46196;52.970;6.954;2023-04-28T12:50:24;12.32;;;8.73;;
60352;SDS011;46196;52.970;6.954;2023-04-28T12:52:51;12.02;;;9.50;;
60352;SDS011;46196;52.970;6.954;2023-04-28T12:55:17;11.88;;;9.25;;
60352;SDS011;46196;52.970;6.954;2023-04-28T12:57:43;11.18;;;9.30;;
60352;SDS011;46196;52.970;6.954;2023-04-28T13:00:09;13.02;;;9.00;;
60352;SDS011;46196;52.970;6.954;2023-04-28T13:02:35;11.35;;;9.10;;
60352;SDS011;46196;52.970;6.954;2023-04-28T13:05:02;10.63;;;9.35;;
60352;SDS011;46196;52.970;6.954;2023-04-28T13:07:27;14.57;;;9.35;;
60352;SDS011;46196;52.970;6.954;2023-04-28T13:09:54;13.70;;;9.50;;
60352;SDS011;46196;52.970;6.954;2023-04-28T13:12:20;11.80;;;9.27;;
60352;SDS011;46196;52.970;6.954;2023-04-28T13:14:46;13.93;;;9.55;;
60352;SDS011;46196;52.970;6.954;2023-04-28T13:17:12;11.93;;;9.45;;
60352;SDS011;46196;52.970;6.954;2023-04-28T13:19:38;12.23;;;9.50;;
60352;SDS011;46196;52.970;6.954;2023-04-28T13:22:04;13.43;;;9.05;;
60352;SDS011;46196;52.970;6.954;2023-04-28T13:24:31;11.85;;;9.32;;
60352;SDS011;46196;52.970;6.954;2023-04-28T13:26:59;14.13;;;10.07;;
60352;SDS011;46196;52.970;6.954;2023-04-28T13:29:26;14.73;;;9.77;;
60352;SDS011;46196;52.970;6.954;2023-04-28T13:31:52;15.50;;;10.52;;
60352;SDS011;46196;52.970;6.954;2023-04-28T13:34:18;16.23;;;10.55;;
60352;SDS011;46196;52.970;6.954;2023-04-28T13:36:44;13.07;;;10.52;;
60352;SDS011;46196;52.970;6.954;2023-04-28T13:39:12;14.25;;;10.77;;
60352;SDS011;46196;52.970;6.954;2023-04-28T13:41:40;13.63;;;12.10;;
60352;SDS011;46196;52.970;6.954;2023-04-28T13:44:07;14.68;;;10.10;;
60352;SDS011;46196;52.970;6.954;2023-04-28T13:46:33;13.38;;;10.43;;
60352;SDS011;46196;52.970;6.954;2023-04-28T13:48:59;14.13;;;10.77;;
60352;SDS011;46196;52.970;6.954;2023-04-28T13:51:24;15.57;;;10.98;;
60352;SDS011;46196;52.970;6.954;2023-04-28T13:53:50;18.52;;;10.90;;
60352;SDS011;46196;52.970;6.954;2023-04-28T13:56:16;13.65;;;12.07;;
60352;SDS011;46196;52.970;6.954;2023-04-28T13:58:41;15.20;;;11.45;;
60352;SDS011;46196;52.970;6.954;2023-04-28T14:01:07;15.63;;;12.95;;
60352;SDS011;46196;52.970;6.954;2023-04-28T14:03:33;15.70;;;12.55;;
60352;SDS011;46196;52.970;6.954;2023-04-28T14:06:00;17.85;;;12.80;;
60352;SDS011;46196;52.970;6.954;2023-04-28T14:08:26;18.95;;;14.15;;
60352;SDS011;46196;52.970;6.954;2023-04-28T14:10:53;16.80;;;13.30;;
60352;SDS011;46196;52.970;6.954;2023-04-28T14:13:18;15.85;;;13.35;;
60352;SDS011;46196;52.970;6.954;2023-04-28T14:15:44;15.27;;;13.02;;
60352;SDS011;46196;52.970;6.954;2023-04-28T14:18:11;17.48;;;13.55;;
60352;SDS011;46196;52.970;6.954;2023-04-28T14:20:38;17.35;;;13.75;;
60352;SDS011;46196;52.970;6.954;2023-04-28T14:23:04;17.88;;;13.93;;
60352;SDS011;46196;52.970;6.954;2023-04-28T14:25:30;19.52;;;15.23;;
60352;SDS011;46196;52.970;6.954;2023-04-28T14:27:55;18.67;;;15.95;;
60352;SDS011;46196;52.970;6.954;2023-04-28T14:30:22;22.08;;;16.58;;
60352;SDS011;46196;52.970;6.954;2023-04-28T14:32:48;20.65;;;15.73;;
60352;SDS011;46196;52.970;6.954;2023-04-28T14:35:13;18.60;;;14.90;;
60352;SDS011;46196;52.970;6.954;2023-04-28T14:37:40;20.50;;;15.48;;
60352;SDS011;46196;52.970;6.954;2023-04-28T14:40:06;18.35;;;15.02;;
60352;SDS011;46196;52.970;6.954;2023-04-28T14:42:33;18.15;;;15.50;;
60352;SDS011;46196;52.970;6.954;2023-04-28T14:45:03;20.60;;;15.75;;
60352;SDS011;46196;52.970;6.954;2023-04-28T14:47:30;20.85;;;16.30;;
60352;SDS011;46196;52.970;6.954;2023-04-28T14:49:56;21.13;;;16.40;;
60352;SDS011;46196;52.970;6.954;2023-04-28T14:52:23;20.27;;;16.08;;
60352;SDS011;46196;52.970;6.954;2023-04-28T14:54:51;25.92;;;16.63;;
60352;SDS011;46196;52.970;6.954;2023-04-28T14:57:18;22.27;;;16.60;;
60352;SDS011;46196;52.970;6.954;2023-04-28T14:59:44;21.73;;;16.00;;
60352;SDS011;46196;52.970;6.954;2023-04-28T15:02:10;23.65;;;16.52;;
60352;SDS011;46196;52.970;6.954;2023-04-28T15:04:37;21.67;;;16.92;;
60352;SDS011;46196;52.970;6.954;2023-04-28T15:07:03;20.60;;;16.00;;
60352;SDS011;46196;52.970;6.954;2023-04-28T15:09:30;25.65;;;17.73;;
60352;SDS011;46196;52.970;6.954;2023-04-28T15:11:55;22.23;;;18.05;;
60352;SDS011;46196;52.970;6.954;2023-04-28T15:14:21;19.70;;;15.93;;